createdAt,value
2019-02-26T00:00:16.939Z,99.90
2019-02-26T00:02:46.607Z,99.90
2019-02-26T00:05:12.042Z,99.90
2019-02-26T00:07:38.563Z,99.90
2019-02-26T00:10:08.650Z,99.90
2019-02-26T00:12:35.664Z,99.90
2019-02-26T00:15:06.531Z,99.90
2019-02-26T00:17:36.064Z,99.90
2019-02-26T00:20:01.422Z,99.90
2019-02-26T00:22:27.743Z,99.90
2019-02-26T00:24:54.247Z,99.90
2019-02-26T00:27:20.839Z,99.90
2019-02-26T00:29:49.225Z,99.90
2019-02-26T00:32:16.178Z,99.90
2019-02-26T00:34:44.785Z,99.90
2019-02-26T00:37:11.225Z,99.90
2019-02-26T00:39:37.734Z,99.90
2019-02-26T00:42:05.184Z,99.90
2019-02-26T00:44:32.726Z,99.90
2019-02-26T00:47:01.908Z,99.90
2019-02-26T00:49:30.199Z,99.90
2019-02-26T00:51:56.787Z,99.90
2019-02-26T00:54:24.472Z,99.90
2019-02-26T00:56:51.582Z,99.90
2019-02-26T00:59:18.158Z,99.90
2019-02-26T01:01:47.922Z,99.90
2019-02-26T01:04:13.020Z,99.90
2019-02-26T01:06:39.446Z,99.90
2019-02-26T01:09:10.707Z,99.90
2019-02-26T01:11:35.748Z,99.90
2019-02-26T01:14:02.484Z,99.90
2019-02-26T01:16:28.869Z,99.90
2019-02-26T01:18:55.315Z,99.90
2019-02-26T01:21:24.387Z,99.90
2019-02-26T01:23:50.109Z,99.90
2019-02-26T01:26:16.484Z,99.90
2019-02-26T01:28:46.120Z,99.90
2019-02-26T01:31:11.524Z,99.90
2019-02-26T01:33:37.818Z,99.90
2019-02-26T01:36:04.453Z,99.90
2019-02-26T01:38:30.833Z,99.90
2019-02-26T01:40:57.230Z,99.90
2019-02-26T01:43:23.526Z,99.90
2019-02-26T01:45:50.834Z,99.90
2019-02-26T01:48:18.680Z,99.90
2019-02-26T01:50:45.126Z,99.90
2019-02-26T01:53:12.102Z,99.90
2019-02-26T01:55:41.395Z,99.90
2019-02-26T01:58:08.118Z,99.90
2019-02-26T02:00:34.645Z,99.90
2019-02-26T02:03:00.935Z,99.90
2019-02-26T02:05:29.462Z,99.90
2019-02-26T02:07:56.074Z,99.90
2019-02-26T02:10:22.740Z,99.90
2019-02-26T02:12:49.380Z,99.90
2019-02-26T02:15:18.250Z,99.90
2019-02-26T02:17:44.317Z,99.90
2019-02-26T02:20:15.717Z,99.90
2019-02-26T02:22:44.262Z,99.90
2019-02-26T02:25:11.448Z,99.90
2019-02-26T02:27:37.864Z,99.90
2019-02-26T02:30:14.458Z,99.90
2019-02-26T02:32:37.715Z,99.90
2019-02-26T02:35:09.160Z,99.90
2019-02-26T02:37:35.473Z,99.90
2019-02-26T02:40:03.569Z,99.90
2019-02-26T02:42:30.178Z,99.90
2019-02-26T02:44:56.763Z,99.90
2019-02-26T02:47:25.295Z,99.90
2019-02-26T02:49:51.664Z,99.90
2019-02-26T02:52:18.183Z,99.90
2019-02-26T02:54:47.022Z,99.90
2019-02-26T02:57:12.790Z,99.90
2019-02-26T02:59:42.070Z,99.90
2019-02-26T03:02:09.404Z,99.90
2019-02-26T03:04:36.064Z,99.90
2019-02-26T03:07:03.779Z,99.90
2019-02-26T03:09:31.686Z,99.90
2019-02-26T03:11:58.443Z,99.90
2019-02-26T03:14:24.882Z,99.90
2019-02-26T03:16:53.402Z,99.90
2019-02-26T03:19:19.790Z,99.90
2019-02-26T03:21:47.200Z,99.90
2019-02-26T03:24:14.484Z,99.90
2019-02-26T03:26:40.855Z,99.90
2019-02-26T03:29:07.317Z,99.90
2019-02-26T03:31:35.259Z,99.90
2019-02-26T03:34:08.754Z,99.90
2019-02-26T03:36:31.513Z,99.90
2019-02-26T03:39:00.715Z,99.90
2019-02-26T03:41:28.876Z,99.90
2019-02-26T03:43:58.510Z,99.90
2019-02-26T03:46:23.774Z,99.90
2019-02-26T03:48:50.194Z,99.90
2019-02-26T03:51:17.858Z,99.90
2019-02-26T03:53:44.456Z,99.90
2019-02-26T03:56:12.572Z,99.90
2019-02-26T03:58:39.675Z,99.90
2019-02-26T04:01:08.452Z,99.90
2019-02-26T04:03:35.321Z,99.90
2019-02-26T04:06:06.693Z,99.90
2019-02-26T04:08:31.569Z,99.90
2019-02-26T04:10:59.530Z,99.90
2019-02-26T04:13:26.210Z,99.90
2019-02-26T04:15:54.097Z,99.90
2019-02-26T04:18:20.985Z,99.90
2019-02-26T04:20:47.421Z,99.90
2019-02-26T04:23:16.561Z,99.90
2019-02-26T04:25:52.106Z,99.90
2019-02-26T04:28:33.032Z,99.90
2019-02-26T04:31:10.290Z,99.90
2019-02-26T04:34:08.576Z,99.90
2019-02-26T04:37:01.682Z,99.90
2019-02-26T04:39:49.502Z,99.90
2019-02-26T04:42:40.980Z,99.90
2019-02-26T04:45:28.610Z,99.90
2019-02-26T04:48:09.314Z,99.90
2019-02-26T04:50:38.735Z,99.90
2019-02-26T04:53:05.778Z,99.90
2019-02-26T04:55:35.436Z,99.90
2019-02-26T04:58:00.954Z,99.90
2019-02-26T05:00:29.930Z,99.90
2019-02-26T05:02:55.844Z,99.90
2019-02-26T05:05:23.296Z,99.90
2019-02-26T05:07:50.813Z,99.90
2019-02-26T05:10:17.363Z,99.90
2019-02-26T05:12:43.838Z,99.90
2019-02-26T05:15:13.976Z,99.90
2019-02-26T05:17:38.888Z,99.90
2019-02-26T05:20:08.750Z,99.90
2019-02-26T05:22:33.996Z,99.90
2019-02-26T05:25:00.315Z,99.90
2019-02-26T05:27:26.779Z,99.90
2019-02-26T05:29:54.772Z,99.90
2019-02-26T05:32:24.104Z,99.90
2019-02-26T05:34:50.844Z,99.90
2019-02-26T05:37:17.286Z,99.90
2019-02-26T05:39:45.880Z,99.90
2019-02-26T05:42:11.884Z,99.90
2019-02-26T05:44:38.322Z,99.90
2019-02-26T05:47:06.935Z,99.90
2019-02-26T05:49:35.315Z,99.90
2019-02-26T05:52:04.014Z,99.90
2019-02-26T05:54:30.079Z,99.90
2019-02-26T05:56:56.581Z,99.90
2019-02-26T05:59:22.898Z,99.90
2019-02-26T06:01:52.618Z,99.90
2019-02-26T06:04:20.495Z,99.90
2019-02-26T06:06:46.036Z,99.90
2019-02-26T06:09:12.659Z,99.90
2019-02-26T06:11:41.702Z,99.90
2019-02-26T06:14:12.111Z,99.90
2019-02-26T06:16:35.670Z,99.90
2019-02-26T06:19:02.216Z,99.90
2019-02-26T06:21:28.525Z,99.90
2019-02-26T06:23:54.926Z,99.90
2019-02-26T06:26:21.535Z,99.90
2019-02-26T06:28:53.016Z,99.90
2019-02-26T06:31:22.132Z,99.90
2019-02-26T06:33:50.587Z,99.90
2019-02-26T06:36:18.540Z,99.90
2019-02-26T06:38:49.285Z,99.90
2019-02-26T06:41:15.700Z,99.90
2019-02-26T06:43:45.050Z,99.90
2019-02-26T06:46:12.321Z,99.90
2019-02-26T06:48:38.629Z,99.90
2019-02-26T06:51:07.088Z,99.90
2019-02-26T06:53:33.455Z,99.90
2019-02-26T06:56:00.762Z,99.90
2019-02-26T06:58:27.839Z,99.90
2019-02-26T07:00:55.875Z,99.90
2019-02-26T07:03:24.767Z,99.90
2019-02-26T07:05:50.916Z,99.90
2019-02-26T07:08:18.908Z,99.90
2019-02-26T07:10:45.594Z,99.90
2019-02-26T07:13:14.059Z,99.90
2019-02-26T07:15:43.058Z,99.90
2019-02-26T07:18:11.936Z,99.90
2019-02-26T07:20:39.984Z,99.90
2019-02-26T07:23:08.211Z,99.90
2019-02-26T07:25:36.447Z,99.90
2019-02-26T07:28:03.043Z,99.90
2019-02-26T07:30:29.680Z,99.90
2019-02-26T07:32:56.230Z,99.90
2019-02-26T07:35:22.715Z,99.90
2019-02-26T07:37:49.138Z,99.90
2019-02-26T07:40:17.057Z,99.90
2019-02-26T07:42:46.593Z,99.90
2019-02-26T07:45:15.259Z,99.90
2019-02-26T07:47:41.552Z,99.90
2019-02-26T07:50:12.271Z,99.90
2019-02-26T07:52:38.858Z,99.90
2019-02-26T07:55:08.979Z,99.90
2019-02-26T07:57:36.247Z,99.90
2019-02-26T08:00:11.256Z,99.90
2019-02-26T08:02:37.846Z,99.90
2019-02-26T08:05:05.584Z,99.90
2019-02-26T08:07:32.093Z,99.90
2019-02-26T08:09:58.450Z,99.90
2019-02-26T08:12:24.885Z,99.90
2019-02-26T08:14:51.281Z,99.90
2019-02-26T08:17:17.882Z,99.90
2019-02-26T08:19:46.800Z,99.90
2019-02-26T08:22:12.700Z,99.90
2019-02-26T08:24:39.275Z,99.90
2019-02-26T08:27:06.526Z,99.90
2019-02-26T08:29:36.136Z,99.90
2019-02-26T08:32:02.581Z,99.90
2019-02-26T08:34:29.219Z,99.90
2019-02-26T08:36:55.701Z,99.90
2019-02-26T08:39:22.274Z,99.90
2019-02-26T08:42:02.649Z,99.90
2019-02-26T08:44:29.085Z,99.90
2019-02-26T08:46:55.697Z,99.90
2019-02-26T08:49:22.612Z,99.90
2019-02-26T08:51:49.157Z,99.90
2019-02-26T08:54:20.822Z,99.90
2019-02-26T08:56:43.975Z,99.90
2019-02-26T08:59:10.280Z,99.90
2019-02-26T09:01:36.820Z,99.90
2019-02-26T09:04:03.396Z,99.90
2019-02-26T09:06:30.093Z,99.90
2019-02-26T09:08:57.958Z,99.90
2019-02-26T09:11:26.215Z,99.90
2019-02-26T09:13:53.425Z,99.90
2019-02-26T09:16:21.815Z,99.90
2019-02-26T09:18:48.200Z,99.90
2019-02-26T09:21:15.282Z,99.90
2019-02-26T09:23:41.710Z,99.90
2019-02-26T09:26:08.310Z,99.90
2019-02-26T09:28:34.634Z,99.90
2019-02-26T09:31:04.056Z,99.90
2019-02-26T09:33:32.666Z,99.90
2019-02-26T09:35:57.760Z,99.90
2019-02-26T09:38:25.548Z,99.90
2019-02-26T09:40:52.781Z,99.90
2019-02-26T09:43:22.543Z,99.90
2019-02-26T09:45:50.582Z,99.90
2019-02-26T09:48:19.274Z,99.90
2019-02-26T09:50:46.319Z,99.90
2019-02-26T09:53:13.949Z,99.90
2019-02-26T09:55:40.420Z,99.90
2019-02-26T09:58:06.953Z,99.90
2019-02-26T10:00:33.609Z,99.90
2019-02-26T10:03:00.051Z,99.90
2019-02-26T10:05:26.535Z,99.90
2019-02-26T10:07:54.944Z,99.90
2019-02-26T10:10:22.338Z,99.90
2019-02-26T10:12:48.670Z,99.90
2019-02-26T10:15:18.445Z,99.90
2019-02-26T10:17:45.295Z,99.90
2019-02-26T10:20:20.724Z,99.90
2019-02-26T10:22:53.144Z,99.90
2019-02-26T10:25:20.933Z,99.90
2019-02-26T10:27:50.287Z,99.90
2019-02-26T10:30:21.664Z,99.90
2019-02-26T10:32:48.614Z,99.90
2019-02-26T10:35:32.581Z,99.90
2019-02-26T10:37:59.730Z,99.90
2019-02-26T10:40:34.552Z,99.90
2019-02-26T10:42:54.119Z,99.90
2019-02-26T10:45:27.201Z,99.90
2019-02-26T10:47:56.237Z,99.90
2019-02-26T10:50:25.557Z,99.90
2019-02-26T10:52:52.835Z,99.90
2019-02-26T10:55:21.938Z,99.90
2019-02-26T10:57:48.272Z,99.90
2019-02-26T11:00:23.245Z,99.90
2019-02-26T11:02:53.451Z,99.90
2019-02-26T11:05:21.557Z,99.90
2019-02-26T11:07:47.647Z,99.90
2019-02-26T11:10:15.451Z,99.90
2019-02-26T11:12:42.859Z,99.90
2019-02-26T11:15:14.680Z,99.90
2019-02-26T11:17:43.108Z,99.70
2019-02-26T11:20:12.222Z,99.30
2019-02-26T11:22:41.708Z,98.00
2019-02-26T11:25:12.977Z,96.20
2019-02-26T11:27:40.904Z,96.00
2019-02-26T11:30:23.694Z,93.60
2019-02-26T11:32:49.786Z,94.30
2019-02-26T11:35:19.474Z,95.00
2019-02-26T11:37:47.296Z,90.90
2019-02-26T11:40:24.867Z,87.90
2019-02-26T11:42:51.291Z,86.90
2019-02-26T11:45:19.750Z,85.00
2019-02-26T11:47:46.594Z,81.00
2019-02-26T11:50:19.397Z,79.80
2019-02-26T11:52:45.901Z,75.90
2019-02-26T11:55:15.494Z,77.10
2019-02-26T11:57:45.145Z,77.60
2019-02-26T12:00:25.399Z,77.70
2019-02-26T12:02:48.957Z,77.30
2019-02-26T12:05:15.566Z,78.90
2019-02-26T12:07:42.215Z,77.70
2019-02-26T12:10:14.683Z,76.60
2019-02-26T12:12:40.897Z,76.40
2019-02-26T12:15:12.470Z,74.00
2019-02-26T12:17:39.977Z,71.60
2019-02-26T12:20:12.090Z,68.00
2019-02-26T12:22:41.092Z,68.50
2019-02-26T12:25:11.259Z,68.40
2019-02-26T12:27:38.997Z,68.50
2019-02-26T12:30:24.457Z,67.60
2019-02-26T12:32:53.086Z,66.70
2019-02-26T12:35:19.737Z,66.20
2019-02-26T12:37:47.282Z,65.60
2019-02-26T12:40:19.451Z,64.30
2019-02-26T12:42:46.463Z,64.60
2019-02-26T12:45:18.687Z,64.30
2019-02-26T12:47:48.154Z,64.10
2019-02-26T12:50:17.773Z,62.60
2019-02-26T12:52:45.438Z,62.10
2019-02-26T12:55:14.413Z,61.50
2019-02-26T12:57:43.207Z,61.50
2019-02-26T13:00:23.182Z,60.00
2019-02-26T13:02:52.317Z,59.00
2019-02-26T13:05:19.660Z,59.80
2019-02-26T13:07:47.348Z,59.20
2019-02-26T13:10:26.037Z,59.20
2019-02-26T13:12:55.201Z,58.80
2019-02-26T13:15:21.699Z,58.80
2019-02-26T13:17:53.154Z,57.50
2019-02-26T13:20:22.384Z,57.90
2019-02-26T13:22:49.272Z,57.20
2019-02-26T13:25:17.964Z,55.90
2019-02-26T13:27:47.253Z,55.70
2019-02-26T13:30:18.425Z,55.60
2019-02-26T13:33:04.766Z,55.50
2019-02-26T13:35:13.488Z,54.80
2019-02-26T13:37:42.031Z,54.40
2019-02-26T13:40:18.130Z,53.80
2019-02-26T13:42:50.242Z,53.30
2019-02-26T13:45:19.140Z,52.70
2019-02-26T13:47:46.082Z,52.50
2019-02-26T13:50:26.437Z,52.00
2019-02-26T13:52:53.172Z,51.90
2019-02-26T13:55:19.824Z,51.90
2019-02-26T13:57:46.807Z,52.00
2019-02-26T14:00:15.216Z,51.60
2019-02-26T14:02:42.102Z,51.00
2019-02-26T14:05:11.739Z,50.10
2019-02-26T14:07:38.240Z,50.30
2019-02-26T14:10:22.761Z,50.30
2019-02-26T14:12:49.421Z,49.50
2019-02-26T14:15:19.755Z,49.00
2019-02-26T14:17:46.612Z,49.10
2019-02-26T14:20:13.288Z,49.00
2019-02-26T14:22:39.830Z,49.10
2019-02-26T14:25:10.072Z,48.60
2019-02-26T14:27:36.656Z,48.70
2019-02-26T14:30:13.243Z,48.10
2019-02-26T14:32:39.965Z,48.30
2019-02-26T14:35:10.222Z,48.70
2019-02-26T14:37:36.847Z,47.10
2019-02-26T14:40:12.547Z,47.20
2019-02-26T14:42:39.394Z,47.10
2019-02-26T14:45:11.356Z,46.50
2019-02-26T14:47:37.970Z,46.60
2019-02-26T14:50:13.130Z,46.60
2019-02-26T14:52:39.956Z,46.60
2019-02-26T14:55:10.058Z,46.20
2019-02-26T14:57:36.626Z,46.50
2019-02-26T15:00:26.800Z,47.00
2019-02-26T15:02:53.952Z,45.90
2019-02-26T15:05:20.727Z,46.10
2019-02-26T15:07:47.432Z,45.80
2019-02-26T15:10:14.341Z,46.00
2019-02-26T15:12:40.971Z,45.90
2019-02-26T15:15:11.937Z,46.00
2019-02-26T15:17:38.579Z,46.10
2019-02-26T15:20:10.414Z,46.10
2019-02-26T15:22:36.966Z,46.00
2019-02-26T15:25:14.908Z,45.90
2019-02-26T15:27:41.576Z,46.80
2019-02-26T15:30:15.557Z,47.30
2019-02-26T15:32:41.991Z,47.50
2019-02-26T15:35:08.746Z,47.40
2019-02-26T15:37:35.271Z,47.50
2019-02-26T15:40:02.522Z,48.00
2019-02-26T15:42:29.052Z,47.90
2019-02-26T15:44:57.642Z,48.40
2019-02-26T15:47:24.128Z,48.70
2019-02-26T15:49:50.444Z,48.80
2019-02-26T15:52:17.290Z,49.00
2019-02-26T15:54:43.872Z,49.30
2019-02-26T15:57:10.407Z,49.70
2019-02-26T15:59:37.076Z,50.20
2019-02-26T16:02:04.302Z,50.80
2019-02-26T16:04:30.714Z,51.50
2019-02-26T16:06:57.413Z,52.00
2019-02-26T16:09:23.981Z,52.70
2019-02-26T16:11:50.344Z,53.20
2019-02-26T16:14:17.038Z,54.40
2019-02-26T16:16:43.554Z,54.20
2019-02-26T16:19:10.277Z,54.50
2019-02-26T16:21:36.908Z,54.80
2019-02-26T16:24:03.633Z,55.20
2019-02-26T16:26:30.148Z,55.60
2019-02-26T16:29:00.818Z,55.90
2019-02-26T16:31:29.707Z,56.20
2019-02-26T16:33:53.805Z,56.20
2019-02-26T16:36:20.299Z,56.50
2019-02-26T16:38:50.557Z,56.30
2019-02-26T16:41:15.207Z,56.50
2019-02-26T16:43:43.488Z,56.70
2019-02-26T16:46:10.122Z,57.10
2019-02-26T16:48:36.910Z,57.40
2019-02-26T16:51:03.823Z,57.90
2019-02-26T16:53:33.539Z,58.30
2019-02-26T16:55:58.825Z,58.70
2019-02-26T16:58:25.668Z,59.10
2019-02-26T17:00:52.466Z,60.20
2019-02-26T17:03:18.882Z,60.20
2019-02-26T17:05:47.452Z,60.90
2019-02-26T17:08:13.872Z,61.60
2019-02-26T17:10:40.524Z,62.60
2019-02-26T17:13:07.323Z,63.60
2019-02-26T17:15:35.680Z,64.80
2019-02-26T17:18:02.798Z,67.00
2019-02-26T17:20:29.799Z,69.80
2019-02-26T17:22:56.759Z,72.30
2019-02-26T17:25:27.441Z,75.90
2019-02-26T17:27:51.948Z,81.00
2019-02-26T17:30:20.908Z,85.50
2019-02-26T17:32:47.429Z,88.70
2019-02-26T17:35:15.507Z,91.70
2019-02-26T17:37:42.227Z,93.40
2019-02-26T17:40:13.816Z,93.90
2019-02-26T17:42:40.508Z,94.90
2019-02-26T17:45:13.208Z,97.30
2019-02-26T17:47:39.918Z,98.20
2019-02-26T17:50:36.676Z,99.10
2019-02-26T17:53:03.428Z,99.70
2019-02-26T17:55:30.063Z,99.90
2019-02-26T17:57:56.676Z,99.90
2019-02-26T18:00:25.654Z,99.90
2019-02-26T18:02:52.400Z,99.90
2019-02-26T18:05:19.083Z,99.90
2019-02-26T18:07:45.872Z,99.90
2019-02-26T18:10:18.840Z,99.90
2019-02-26T18:12:45.714Z,99.90
2019-02-26T18:15:16.576Z,99.90
2019-02-26T18:17:42.078Z,99.90
2019-02-26T18:20:22.142Z,99.90
2019-02-26T18:22:49.152Z,99.90
2019-02-26T18:25:23.965Z,99.90
2019-02-26T18:27:50.768Z,99.90
2019-02-26T18:30:23.787Z,99.90
2019-02-26T18:32:53.203Z,99.90
2019-02-26T18:35:19.182Z,99.90
2019-02-26T18:37:46.567Z,99.90
2019-02-26T18:40:16.086Z,99.90
2019-02-26T18:42:45.342Z,99.90
2019-02-26T18:45:16.508Z,99.90
2019-02-26T18:47:43.374Z,99.90
2019-02-26T18:50:10.685Z,99.90
2019-02-26T18:52:41.223Z,99.90
2019-02-26T18:55:10.601Z,99.90
2019-02-26T18:57:37.797Z,99.90
2019-02-26T19:00:18.764Z,99.90
2019-02-26T19:02:45.867Z,99.90
2019-02-26T19:05:13.029Z,99.90
2019-02-26T19:07:40.110Z,99.90
2019-02-26T19:10:11.278Z,99.90
2019-02-26T19:12:39.079Z,99.90
2019-02-26T19:15:12.613Z,99.90
2019-02-26T19:17:41.944Z,99.90
2019-02-26T19:20:14.567Z,99.90
2019-02-26T19:22:42.014Z,99.90
2019-02-26T19:25:09.813Z,99.90
2019-02-26T19:27:37.355Z,99.90
2019-02-26T19:30:12.462Z,99.90
2019-02-26T19:32:39.733Z,99.90
2019-02-26T19:35:12.309Z,99.90
2019-02-26T19:37:37.457Z,99.90
2019-02-26T19:40:17.757Z,99.90
2019-02-26T19:42:45.019Z,99.90
2019-02-26T19:45:12.128Z,99.90
2019-02-26T19:47:40.358Z,99.90
2019-02-26T19:50:16.052Z,99.90
2019-02-26T19:52:43.969Z,99.90
2019-02-26T19:55:17.119Z,99.90
2019-02-26T19:57:44.102Z,99.90
2019-02-26T20:00:14.283Z,99.90
2019-02-26T20:02:43.175Z,99.90
2019-02-26T20:05:17.466Z,99.90
2019-02-26T20:07:47.167Z,99.90
2019-02-26T20:10:17.634Z,99.90
2019-02-26T20:12:45.465Z,99.90
2019-02-26T20:15:14.007Z,99.90
2019-02-26T20:17:40.887Z,99.90
2019-02-26T20:20:13.966Z,99.90
2019-02-26T20:22:40.897Z,99.90
2019-02-26T20:25:11.828Z,99.90
2019-02-26T20:27:38.546Z,99.90
2019-02-26T20:30:13.029Z,99.90
2019-02-26T20:32:39.744Z,99.90
2019-02-26T20:35:11.967Z,99.90
2019-02-26T20:37:38.668Z,99.90
2019-02-26T20:40:16.120Z,99.90
2019-02-26T20:42:40.865Z,99.90
2019-02-26T20:45:12.099Z,99.90
2019-02-26T20:47:40.029Z,99.90
2019-02-26T20:50:11.832Z,99.90
2019-02-26T20:52:38.938Z,99.90
2019-02-26T20:55:16.691Z,99.90
2019-02-26T20:57:44.604Z,99.90
2019-02-26T21:00:17.441Z,99.90
2019-02-26T21:02:44.557Z,99.90
2019-02-26T21:05:11.660Z,99.90
2019-02-26T21:07:38.154Z,99.90
2019-02-26T21:10:16.380Z,99.90
2019-02-26T21:12:43.101Z,99.90
2019-02-26T21:15:13.802Z,99.90
2019-02-26T21:17:41.258Z,99.90
2019-02-26T21:20:10.561Z,99.90
2019-02-26T21:22:37.213Z,99.90
2019-02-26T21:25:08.466Z,99.90
2019-02-26T21:27:35.433Z,99.90
2019-02-26T21:30:05.862Z,99.90
2019-02-26T21:32:32.984Z,99.90
2019-02-26T21:34:59.979Z,99.90
2019-02-26T21:37:26.625Z,99.90
2019-02-26T21:39:53.252Z,99.90
2019-02-26T21:42:19.995Z,99.90
2019-02-26T21:44:46.456Z,99.90
2019-02-26T21:47:13.018Z,99.90
2019-02-26T21:49:40.887Z,99.90
2019-02-26T21:52:09.049Z,99.90
2019-02-26T21:54:36.226Z,99.90
2019-02-26T21:57:03.005Z,99.90
2019-02-26T21:59:32.602Z,99.90
2019-02-26T22:01:58.146Z,99.90
2019-02-26T22:04:24.976Z,99.90
2019-02-26T22:06:51.644Z,99.90
2019-02-26T22:09:18.283Z,99.90
2019-02-26T22:11:44.790Z,99.90
2019-02-26T22:14:13.362Z,99.90
2019-02-26T22:16:39.840Z,99.90
2019-02-26T22:19:07.210Z,99.90
2019-02-26T22:21:34.241Z,99.90
2019-02-26T22:24:00.827Z,99.90
2019-02-26T22:26:27.369Z,99.90
2019-02-26T22:28:54.128Z,99.90
2019-02-26T22:31:20.835Z,99.90
2019-02-26T22:33:47.559Z,99.90
2019-02-26T22:36:14.246Z,99.90
2019-02-26T22:38:40.887Z,99.90
2019-02-26T22:41:07.573Z,99.90
2019-02-26T22:43:34.164Z,99.90
2019-02-26T22:46:01.667Z,99.90
2019-02-26T22:48:28.438Z,99.90
2019-02-26T22:50:55.059Z,99.90
2019-02-26T22:53:21.522Z,99.90
2019-02-26T22:55:49.922Z,99.90
2019-02-26T22:58:16.428Z,99.90
2019-02-26T23:00:50.339Z,99.90
2019-02-26T23:03:17.154Z,99.90
2019-02-26T23:05:43.482Z,99.90
2019-02-26T23:08:11.866Z,99.90
2019-02-26T23:10:38.937Z,99.90
2019-02-26T23:13:05.784Z,99.90
2019-02-26T23:15:32.508Z,99.90
2019-02-26T23:17:59.137Z,99.90
2019-02-26T23:20:26.306Z,99.90
2019-02-26T23:22:53.320Z,99.90
2019-02-26T23:25:20.180Z,99.90
2019-02-26T23:27:48.673Z,99.90
2019-02-26T23:30:15.609Z,99.90
2019-02-26T23:32:42.143Z,99.90
2019-02-26T23:35:13.254Z,99.90
2019-02-26T23:37:40.044Z,99.90
2019-02-26T23:40:10.811Z,99.90
2019-02-26T23:42:38.994Z,99.90
2019-02-26T23:45:09.977Z,99.90
2019-02-26T23:47:36.625Z,99.90
2019-02-26T23:50:08.659Z,99.90
2019-02-26T23:52:35.284Z,99.90
2019-02-26T23:55:02.002Z,99.90
2019-02-26T23:57:28.613Z,99.90
2019-02-26T23:59:55.158Z,99.90
